sensor_id;sensor_type;location;lat;lon;timestamp;temperature;humidity
61591;DHT22;57639;52.410;-1.966;2022-09-09T00:02:39;19.30;64.30
61591;DHT22;57639;52.410;-1.966;2022-09-09T00:05:55;19.40;64.30
61591;DHT22;57639;52.410;-1.966;2022-09-09T00:09:10;19.30;64.40
61591;DHT22;57639;52.410;-1.966;2022-09-09T00:12:25;19.40;64.30
61591;DHT22;57639;52.410;-1.966;2022-09-09T00:15:42;19.30;64.30
61591;DHT22;57639;52.410;-1.966;2022-09-09T00:19:00;19.30;64.30
61591;DHT22;57639;52.410;-1.966;2022-09-09T00:22:15;19.40;64.20
61591;DHT22;57639;52.410;-1.966;2022-09-09T00:25:28;19.40;64.20
61591;DHT22;57639;52.410;-1.966;2022-09-09T00:28:41;19.40;64.10
61591;DHT22;57639;52.410;-1.966;2022-09-09T00:31:55;19.40;64.20
61591;DHT22;57639;52.410;-1.966;2022-09-09T00:35:16;19.40;64.10
61591;DHT22;57639;52.410;-1.966;2022-09-09T00:38:31;19.40;64.20
61591;DHT22;57639;52.410;-1.966;2022-09-09T00:41:47;19.40;64.10
61591;DHT22;57639;52.410;-1.966;2022-09-09T00:45:01;19.40;64.10
61591;DHT22;57639;52.410;-1.966;2022-09-09T00:48:12;19.30;64.10
61591;DHT22;57639;52.410;-1.966;2022-09-09T00:51:29;19.40;64.10
61591;DHT22;57639;52.410;-1.966;2022-09-09T00:54:46;19.40;64.10
61591;DHT22;57639;52.410;-1.966;2022-09-09T00:57:55;19.40;64.10
61591;DHT22;57639;52.410;-1.966;2022-09-09T01:01:05;19.30;64.10
61591;DHT22;57639;52.410;-1.966;2022-09-09T01:04:21;19.30;64.00
61591;DHT22;57639;52.410;-1.966;2022-09-09T01:07:33;19.30;64.00
61591;DHT22;57639;52.410;-1.966;2022-09-09T01:10:44;19.30;64.00
61591;DHT22;57639;52.410;-1.966;2022-09-09T01:14:01;19.30;63.90
61591;DHT22;57639;52.410;-1.966;2022-09-09T01:17:15;19.30;64.00
61591;DHT22;57639;52.410;-1.966;2022-09-09T01:20:29;19.40;64.00
61591;DHT22;57639;52.410;-1.966;2022-09-09T01:23:51;19.30;64.00
61591;DHT22;57639;52.410;-1.966;2022-09-09T01:27:10;19.30;63.90
61591;DHT22;57639;52.410;-1.966;2022-09-09T01:30:22;19.30;63.90
61591;DHT22;57639;52.410;-1.966;2022-09-09T01:33:28;19.30;63.90
61591;DHT22;57639;52.410;-1.966;2022-09-09T01:36:40;19.30;63.90
61591;DHT22;57639;52.410;-1.966;2022-09-09T01:39:54;19.30;63.90
61591;DHT22;57639;52.410;-1.966;2022-09-09T01:43:11;19.30;64.00
61591;DHT22;57639;52.410;-1.966;2022-09-09T01:46:19;19.30;64.00
61591;DHT22;57639;52.410;-1.966;2022-09-09T01:49:28;19.20;63.90
61591;DHT22;57639;52.410;-1.966;2022-09-09T01:52:37;19.20;63.90
61591;DHT22;57639;52.410;-1.966;2022-09-09T01:55:54;19.20;64.00
61591;DHT22;57639;52.410;-1.966;2022-09-09T02:02:55;19.20;64.00
61591;DHT22;57639;52.410;-1.966;2022-09-09T02:06:14;19.30;63.90
61591;DHT22;57639;52.410;-1.966;2022-09-09T02:09:26;19.20;63.90
61591;DHT22;57639;52.410;-1.966;2022-09-09T02:12:38;19.20;63.80
61591;DHT22;57639;52.410;-1.966;2022-09-09T02:15:53;19.20;63.70
61591;DHT22;57639;52.410;-1.966;2022-09-09T02:19:08;19.30;63.60
61591;DHT22;57639;52.410;-1.966;2022-09-09T02:22:20;19.20;63.20
61591;DHT22;57639;52.410;-1.966;2022-09-09T02:25:29;19.20;63.10
61591;DHT22;57639;52.410;-1.966;2022-09-09T02:28:37;19.20;63.20
61591;DHT22;57639;52.410;-1.966;2022-09-09T02:31:49;19.20;63.30
61591;DHT22;57639;52.410;-1.966;2022-09-09T02:35:03;19.20;63.30
61591;DHT22;57639;52.410;-1.966;2022-09-09T02:38:14;19.20;63.30
61591;DHT22;57639;52.410;-1.966;2022-09-09T02:41:25;19.20;63.30
61591;DHT22;57639;52.410;-1.966;2022-09-09T02:44:33;19.20;63.40
61591;DHT22;57639;52.410;-1.966;2022-09-09T02:47:48;19.20;63.40
61591;DHT22;57639;52.410;-1.966;2022-09-09T02:51:04;19.20;63.30
61591;DHT22;57639;52.410;-1.966;2022-09-09T02:54:20;19.20;63.40
61591;DHT22;57639;52.410;-1.966;2022-09-09T02:57:31;19.20;63.40
61591;DHT22;57639;52.410;-1.966;2022-09-09T03:00:40;19.20;63.40
61591;DHT22;57639;52.410;-1.966;2022-09-09T03:03:51;19.20;63.30
61591;DHT22;57639;52.410;-1.966;2022-09-09T03:06:59;19.20;63.30
61591;DHT22;57639;52.410;-1.966;2022-09-09T03:10:08;19.20;63.30
61591;DHT22;57639;52.410;-1.966;2022-09-09T03:13:16;19.20;63.30
61591;DHT22;57639;52.410;-1.966;2022-09-09T03:16:23;19.20;63.30
61591;DHT22;57639;52.410;-1.966;2022-09-09T03:19:34;19.20;63.40
61591;DHT22;57639;52.410;-1.966;2022-09-09T03:22:43;19.20;63.40
61591;DHT22;57639;52.410;-1.966;2022-09-09T03:25:52;19.20;63.40
61591;DHT22;57639;52.410;-1.966;2022-09-09T03:29:04;19.20;63.40
61591;DHT22;57639;52.410;-1.966;2022-09-09T03:32:12;19.20;63.40
61591;DHT22;57639;52.410;-1.966;2022-09-09T03:35:24;19.20;63.30
61591;DHT22;57639;52.410;-1.966;2022-09-09T03:38:34;19.10;63.30
61591;DHT22;57639;52.410;-1.966;2022-09-09T03:41:42;19.20;63.20
61591;DHT22;57639;52.410;-1.966;2022-09-09T03:44:51;19.20;63.30
61591;DHT22;57639;52.410;-1.966;2022-09-09T03:47:58;19.20;63.30
61591;DHT22;57639;52.410;-1.966;2022-09-09T03:51:09;19.20;63.20
61591;DHT22;57639;52.410;-1.966;2022-09-09T03:54:16;19.10;63.30
61591;DHT22;57639;52.410;-1.966;2022-09-09T03:57:22;19.20;63.20
61591;DHT22;57639;52.410;-1.966;2022-09-09T04:00:29;19.10;63.20
61591;DHT22;57639;52.410;-1.966;2022-09-09T04:03:37;19.20;63.20
61591;DHT22;57639;52.410;-1.966;2022-09-09T04:06:47;19.20;63.30
61591;DHT22;57639;52.410;-1.966;2022-09-09T04:09:56;19.20;63.30
61591;DHT22;57639;52.410;-1.966;2022-09-09T04:13:03;19.20;63.20
61591;DHT22;57639;52.410;-1.966;2022-09-09T04:16:12;19.20;63.30
61591;DHT22;57639;52.410;-1.966;2022-09-09T04:19:18;19.10;63.30
61591;DHT22;57639;52.410;-1.966;2022-09-09T04:22:28;19.20;63.40
61591;DHT22;57639;52.410;-1.966;2022-09-09T04:25:36;19.10;63.40
61591;DHT22;57639;52.410;-1.966;2022-09-09T04:28:43;19.10;63.40
61591;DHT22;57639;52.410;-1.966;2022-09-09T04:31:49;19.10;63.40
61591;DHT22;57639;52.410;-1.966;2022-09-09T04:34:57;19.10;63.40
61591;DHT22;57639;52.410;-1.966;2022-09-09T04:38:07;19.10;63.40
61591;DHT22;57639;52.410;-1.966;2022-09-09T04:41:17;19.20;63.40
61591;DHT22;57639;52.410;-1.966;2022-09-09T04:44:23;19.10;63.50
61591;DHT22;57639;52.410;-1.966;2022-09-09T04:47:30;19.10;63.50
61591;DHT22;57639;52.410;-1.966;2022-09-09T04:50:36;19.10;63.50
61591;DHT22;57639;52.410;-1.966;2022-09-09T04:53:47;19.10;63.50
61591;DHT22;57639;52.410;-1.966;2022-09-09T04:56:53;19.10;63.50
61591;DHT22;57639;52.410;-1.966;2022-09-09T05:00:01;19.10;63.50
61591;DHT22;57639;52.410;-1.966;2022-09-09T05:03:08;19.10;63.50
61591;DHT22;57639;52.410;-1.966;2022-09-09T05:06:18;19.10;63.50
61591;DHT22;57639;52.410;-1.966;2022-09-09T05:09:29;19.10;63.50
61591;DHT22;57639;52.410;-1.966;2022-09-09T05:12:37;19.10;63.50
61591;DHT22;57639;52.410;-1.966;2022-09-09T05:15:51;19.10;63.50
61591;DHT22;57639;52.410;-1.966;2022-09-09T05:18:59;19.10;63.50
61591;DHT22;57639;52.410;-1.966;2022-09-09T05:22:07;19.10;63.50
61591;DHT22;57639;52.410;-1.966;2022-09-09T05:25:18;19.10;63.60
61591;DHT22;57639;52.410;-1.966;2022-09-09T05:28:26;19.10;63.60
61591;DHT22;57639;52.410;-1.966;2022-09-09T05:31:32;19.10;63.60
61591;DHT22;57639;52.410;-1.966;2022-09-09T05:34:40;19.10;63.60
61591;DHT22;57639;52.410;-1.966;2022-09-09T05:37:47;19.10;63.60
61591;DHT22;57639;52.410;-1.966;2022-09-09T05:40:58;19.10;63.60
61591;DHT22;57639;52.410;-1.966;2022-09-09T05:44:03;19.10;63.60
61591;DHT22;57639;52.410;-1.966;2022-09-09T05:47:10;19.10;63.60
61591;DHT22;57639;52.410;-1.966;2022-09-09T05:50:19;19.10;63.60
61591;DHT22;57639;52.410;-1.966;2022-09-09T05:53:27;19.10;63.60
61591;DHT22;57639;52.410;-1.966;2022-09-09T05:56:39;19.10;63.60
61591;DHT22;57639;52.410;-1.966;2022-09-09T05:59:46;19.10;63.60
61591;DHT22;57639;52.410;-1.966;2022-09-09T06:02:53;19.10;63.60
61591;DHT22;57639;52.410;-1.966;2022-09-09T06:06:01;19.10;63.60
61591;DHT22;57639;52.410;-1.966;2022-09-09T06:09:12;19.10;63.60
61591;DHT22;57639;52.410;-1.966;2022-09-09T06:12:25;19.10;63.60
61591;DHT22;57639;52.410;-1.966;2022-09-09T06:15:32;19.10;63.60
61591;DHT22;57639;52.410;-1.966;2022-09-09T06:18:37;19.10;63.70
61591;DHT22;57639;52.410;-1.966;2022-09-09T06:21:45;19.10;63.70
61591;DHT22;57639;52.410;-1.966;2022-09-09T06:24:53;19.10;63.70
61591;DHT22;57639;52.410;-1.966;2022-09-09T06:28:05;19.10;63.70
61591;DHT22;57639;52.410;-1.966;2022-09-09T06:31:14;19.10;63.70
61591;DHT22;57639;52.410;-1.966;2022-09-09T06:34:22;19.10;63.80
61591;DHT22;57639;52.410;-1.966;2022-09-09T06:37:29;19.10;63.80
61591;DHT22;57639;52.410;-1.966;2022-09-09T06:40:36;19.10;63.70
61591;DHT22;57639;52.410;-1.966;2022-09-09T06:43:47;19.10;63.70
61591;DHT22;57639;52.410;-1.966;2022-09-09T06:46:54;19.00;63.70
61591;DHT22;57639;52.410;-1.966;2022-09-09T06:50:02;19.10;63.70
61591;DHT22;57639;52.410;-1.966;2022-09-09T06:53:12;19.10;63.70
61591;DHT22;57639;52.410;-1.966;2022-09-09T06:56:22;19.10;63.70
61591;DHT22;57639;52.410;-1.966;2022-09-09T06:59:35;19.10;63.70
61591;DHT22;57639;52.410;-1.966;2022-09-09T07:02:42;19.10;63.70
61591;DHT22;57639;52.410;-1.966;2022-09-09T07:05:54;19.10;63.70
61591;DHT22;57639;52.410;-1.966;2022-09-09T07:09:04;19.10;63.80
61591;DHT22;57639;52.410;-1.966;2022-09-09T07:12:13;19.10;63.70
61591;DHT22;57639;52.410;-1.966;2022-09-09T07:15:23;19.10;63.80
61591;DHT22;57639;52.410;-1.966;2022-09-09T07:18:30;19.10;63.80
61591;DHT22;57639;52.410;-1.966;2022-09-09T07:21:41;19.10;63.70
61591;DHT22;57639;52.410;-1.966;2022-09-09T07:25:02;19.10;63.60
61591;DHT22;57639;52.410;-1.966;2022-09-09T07:28:10;19.10;63.60
61591;DHT22;57639;52.410;-1.966;2022-09-09T07:31:19;19.10;63.60
61591;DHT22;57639;52.410;-1.966;2022-09-09T07:34:28;19.10;63.70
61591;DHT22;57639;52.410;-1.966;2022-09-09T07:37:36;19.10;63.70
61591;DHT22;57639;52.410;-1.966;2022-09-09T07:40:45;19.10;63.60
61591;DHT22;57639;52.410;-1.966;2022-09-09T07:43:53;19.10;63.70
61591;DHT22;57639;52.410;-1.966;2022-09-09T07:47:04;19.10;63.70
61591;DHT22;57639;52.410;-1.966;2022-09-09T07:50:11;19.10;63.70
61591;DHT22;57639;52.410;-1.966;2022-09-09T07:53:19;19.20;63.70
61591;DHT22;57639;52.410;-1.966;2022-09-09T07:56:28;19.20;63.70
61591;DHT22;57639;52.410;-1.966;2022-09-09T07:59:36;19.10;63.70
61591;DHT22;57639;52.410;-1.966;2022-09-09T08:02:47;19.20;63.60
61591;DHT22;57639;52.410;-1.966;2022-09-09T08:06:00;19.20;63.50
61591;DHT22;57639;52.410;-1.966;2022-09-09T08:09:08;19.20;63.50
61591;DHT22;57639;52.410;-1.966;2022-09-09T08:12:16;19.20;63.50
61591;DHT22;57639;52.410;-1.966;2022-09-09T08:15:23;19.20;63.50
61591;DHT22;57639;52.410;-1.966;2022-09-09T08:18:31;19.20;63.50
61591;DHT22;57639;52.410;-1.966;2022-09-09T08:21:40;19.20;63.50
61591;DHT22;57639;52.410;-1.966;2022-09-09T08:24:47;19.20;63.50
61591;DHT22;57639;52.410;-1.966;2022-09-09T08:27:55;19.20;63.40
61591;DHT22;57639;52.410;-1.966;2022-09-09T08:31:19;19.20;63.50
61591;DHT22;57639;52.410;-1.966;2022-09-09T08:34:56;19.20;63.50
61591;DHT22;57639;52.410;-1.966;2022-09-09T08:38:05;19.30;63.50
61591;DHT22;57639;52.410;-1.966;2022-09-09T08:41:31;19.20;63.50
61591;DHT22;57639;52.410;-1.966;2022-09-09T08:44:59;19.20;63.50
61591;DHT22;57639;52.410;-1.966;2022-09-09T08:48:22;19.20;63.50
61591;DHT22;57639;52.410;-1.966;2022-09-09T08:51:39;19.30;63.60
61591;DHT22;57639;52.410;-1.966;2022-09-09T08:54:47;19.20;63.50
61591;DHT22;57639;52.410;-1.966;2022-09-09T08:57:57;19.30;63.60
61591;DHT22;57639;52.410;-1.966;2022-09-09T09:01:21;19.30;63.60
61591;DHT22;57639;52.410;-1.966;2022-09-09T09:04:41;19.30;63.70
61591;DHT22;57639;52.410;-1.966;2022-09-09T09:08:06;19.30;63.80
61591;DHT22;57639;52.410;-1.966;2022-09-09T09:11:43;19.30;63.80
61591;DHT22;57639;52.410;-1.966;2022-09-09T09:15:18;19.30;63.80
61591;DHT22;57639;52.410;-1.966;2022-09-09T09:18:34;19.30;63.90
61591;DHT22;57639;52.410;-1.966;2022-09-09T09:21:48;19.30;64.00
61591;DHT22;57639;52.410;-1.966;2022-09-09T09:25:05;19.30;64.00
61591;DHT22;57639;52.410;-1.966;2022-09-09T09:28:22;19.30;64.00
61591;DHT22;57639;52.410;-1.966;2022-09-09T09:31:30;19.30;64.00
61591;DHT22;57639;52.410;-1.966;2022-09-09T09:34:39;19.30;64.00
61591;DHT22;57639;52.410;-1.966;2022-09-09T09:37:47;19.30;64.10
61591;DHT22;57639;52.410;-1.966;2022-09-09T09:41:29;19.30;64.10
61591;DHT22;57639;52.410;-1.966;2022-09-09T09:44:37;19.30;64.20
61591;DHT22;57639;52.410;-1.966;2022-09-09T09:47:44;19.30;64.20
61591;DHT22;57639;52.410;-1.966;2022-09-09T09:50:51;19.30;64.20
61591;DHT22;57639;52.410;-1.966;2022-09-09T09:54:14;19.40;64.30
61591;DHT22;57639;52.410;-1.966;2022-09-09T09:57:28;19.40;64.30
61591;DHT22;57639;52.410;-1.966;2022-09-09T10:00:47;19.40;64.40
61591;DHT22;57639;52.410;-1.966;2022-09-09T10:03:58;19.40;64.40
61591;DHT22;57639;52.410;-1.966;2022-09-09T10:07:11;19.40;64.50
61591;DHT22;57639;52.410;-1.966;2022-09-09T10:10:26;19.40;64.50
61591;DHT22;57639;52.410;-1.966;2022-09-09T10:13:43;19.40;64.50
61591;DHT22;57639;52.410;-1.966;2022-09-09T10:17:03;19.40;64.50
61591;DHT22;57639;52.410;-1.966;2022-09-09T10:20:22;19.40;64.50
61591;DHT22;57639;52.410;-1.966;2022-09-09T10:23:46;19.50;64.60
61591;DHT22;57639;52.410;-1.966;2022-09-09T10:27:01;19.60;64.60
61591;DHT22;57639;52.410;-1.966;2022-09-09T10:30:17;19.60;64.50
61591;DHT22;57639;52.410;-1.966;2022-09-09T10:33:31;19.60;64.60
61591;DHT22;57639;52.410;-1.966;2022-09-09T10:36:44;19.60;64.50
61591;DHT22;57639;52.410;-1.966;2022-09-09T10:39:59;19.60;64.30
61591;DHT22;57639;52.410;-1.966;2022-09-09T10:43:16;19.60;64.10
61591;DHT22;57639;52.410;-1.966;2022-09-09T10:46:37;19.60;64.10
61591;DHT22;57639;52.410;-1.966;2022-09-09T10:50:06;19.70;64.20
61591;DHT22;57639;52.410;-1.966;2022-09-09T10:53:23;19.70;64.60
61591;DHT22;57639;52.410;-1.966;2022-09-09T10:56:33;19.70;64.80
61591;DHT22;57639;52.410;-1.966;2022-09-09T10:59:46;19.80;64.90
61591;DHT22;57639;52.410;-1.966;2022-09-09T11:03:00;19.80;65.20
61591;DHT22;57639;52.410;-1.966;2022-09-09T11:06:09;19.80;65.40
61591;DHT22;57639;52.410;-1.966;2022-09-09T11:09:23;19.80;65.40
61591;DHT22;57639;52.410;-1.966;2022-09-09T11:12:30;19.80;65.30
61591;DHT22;57639;52.410;-1.966;2022-09-09T11:15:43;19.80;65.40
61591;DHT22;57639;52.410;-1.966;2022-09-09T11:19:02;19.80;65.30
61591;DHT22;57639;52.410;-1.966;2022-09-09T11:22:20;19.80;65.70
61591;DHT22;57639;52.410;-1.966;2022-09-09T11:25:32;19.80;66.10
61591;DHT22;57639;52.410;-1.966;2022-09-09T11:28:54;19.90;66.20
61591;DHT22;57639;52.410;-1.966;2022-09-09T11:32:20;19.90;66.20
61591;DHT22;57639;52.410;-1.966;2022-09-09T11:35:45;19.90;66.30
61591;DHT22;57639;52.410;-1.966;2022-09-09T11:39:01;19.90;66.40
61591;DHT22;57639;52.410;-1.966;2022-09-09T11:42:18;19.90;66.50
61591;DHT22;57639;52.410;-1.966;2022-09-09T11:45:28;19.90;66.30
61591;DHT22;57639;52.410;-1.966;2022-09-09T11:48:38;20.00;66.30
61591;DHT22;57639;52.410;-1.966;2022-09-09T11:51:50;20.00;66.30
61591;DHT22;57639;52.410;-1.966;2022-09-09T11:55:09;19.90;66.30
61591;DHT22;57639;52.410;-1.966;2022-09-09T11:58:17;20.00;66.30
61591;DHT22;57639;52.410;-1.966;2022-09-09T12:01:36;20.00;66.20
61591;DHT22;57639;52.410;-1.966;2022-09-09T12:04:46;20.00;66.30
61591;DHT22;57639;52.410;-1.966;2022-09-09T12:07:59;20.00;66.20
61591;DHT22;57639;52.410;-1.966;2022-09-09T12:11:08;20.10;66.10
61591;DHT22;57639;52.410;-1.966;2022-09-09T12:14:20;20.10;66.00
61591;DHT22;57639;52.410;-1.966;2022-09-09T12:17:30;20.10;65.90
61591;DHT22;57639;52.410;-1.966;2022-09-09T12:20:38;20.10;65.80
61591;DHT22;57639;52.410;-1.966;2022-09-09T12:23:51;20.10;65.70
61591;DHT22;57639;52.410;-1.966;2022-09-09T12:27:03;20.10;65.60
61591;DHT22;57639;52.410;-1.966;2022-09-09T12:30:14;20.10;65.50
61591;DHT22;57639;52.410;-1.966;2022-09-09T12:33:21;20.10;65.50
61591;DHT22;57639;52.410;-1.966;2022-09-09T12:36:30;20.10;65.50
61591;DHT22;57639;52.410;-1.966;2022-09-09T12:39:45;20.10;65.50
61591;DHT22;57639;52.410;-1.966;2022-09-09T12:42:55;20.10;65.50
61591;DHT22;57639;52.410;-1.966;2022-09-09T12:46:07;20.10;65.40
61591;DHT22;57639;52.410;-1.966;2022-09-09T12:49:29;20.10;65.40
61591;DHT22;57639;52.410;-1.966;2022-09-09T12:52:38;20.10;65.30
61591;DHT22;57639;52.410;-1.966;2022-09-09T12:55:53;20.10;65.30
61591;DHT22;57639;52.410;-1.966;2022-09-09T12:58:59;20.10;65.20
61591;DHT22;57639;52.410;-1.966;2022-09-09T13:02:18;20.10;65.10
61591;DHT22;57639;52.410;-1.966;2022-09-09T13:05:27;20.10;65.10
61591;DHT22;57639;52.410;-1.966;2022-09-09T13:08:35;20.10;65.10
61591;DHT22;57639;52.410;-1.966;2022-09-09T13:11:48;20.10;65.30
61591;DHT22;57639;52.410;-1.966;2022-09-09T13:14:56;20.10;65.40
61591;DHT22;57639;52.410;-1.966;2022-09-09T13:18:06;20.10;65.40
61591;DHT22;57639;52.410;-1.966;2022-09-09T13:21:15;20.10;65.40
61591;DHT22;57639;52.410;-1.966;2022-09-09T13:24:29;20.10;65.50
61591;DHT22;57639;52.410;-1.966;2022-09-09T13:27:41;20.10;65.50
61591;DHT22;57639;52.410;-1.966;2022-09-09T13:30:56;20.10;65.80
61591;DHT22;57639;52.410;-1.966;2022-09-09T13:34:11;20.10;65.80
61591;DHT22;57639;52.410;-1.966;2022-09-09T13:37:23;20.10;65.90
61591;DHT22;57639;52.410;-1.966;2022-09-09T13:40:33;20.10;65.90
61591;DHT22;57639;52.410;-1.966;2022-09-09T13:43:46;20.20;66.00
61591;DHT22;57639;52.410;-1.966;2022-09-09T13:47:03;20.20;66.00
61591;DHT22;57639;52.410;-1.966;2022-09-09T13:50:21;20.20;66.10
61591;DHT22;57639;52.410;-1.966;2022-09-09T13:53:29;20.20;66.00
61591;DHT22;57639;52.410;-1.966;2022-09-09T13:56:38;20.20;66.00
61591;DHT22;57639;52.410;-1.966;2022-09-09T13:59:49;20.20;66.00
61591;DHT22;57639;52.410;-1.966;2022-09-09T14:03:08;20.20;66.00
61591;DHT22;57639;52.410;-1.966;2022-09-09T14:06:16;20.10;65.90
61591;DHT22;57639;52.410;-1.966;2022-09-09T14:09:26;20.20;65.80
61591;DHT22;57639;52.410;-1.966;2022-09-09T14:12:34;20.20;65.80
61591;DHT22;57639;52.410;-1.966;2022-09-09T14:15:45;20.20;65.80
61591;DHT22;57639;52.410;-1.966;2022-09-09T14:18:50;20.10;65.70
61591;DHT22;57639;52.410;-1.966;2022-09-09T14:22:00;20.20;65.60
61591;DHT22;57639;52.410;-1.966;2022-09-09T14:25:08;20.20;65.60
61591;DHT22;57639;52.410;-1.966;2022-09-09T14:28:17;20.20;65.60
61591;DHT22;57639;52.410;-1.966;2022-09-09T14:31:47;20.10;65.50
61591;DHT22;57639;52.410;-1.966;2022-09-09T14:34:55;20.10;65.60
61591;DHT22;57639;52.410;-1.966;2022-09-09T14:38:03;20.10;65.50
61591;DHT22;57639;52.410;-1.966;2022-09-09T14:41:10;20.10;65.50
61591;DHT22;57639;52.410;-1.966;2022-09-09T14:44:17;20.10;65.40
61591;DHT22;57639;52.410;-1.966;2022-09-09T14:47:28;20.10;65.40
61591;DHT22;57639;52.410;-1.966;2022-09-09T14:50:34;20.10;65.50
61591;DHT22;57639;52.410;-1.966;2022-09-09T14:53:44;20.10;65.40
61591;DHT22;57639;52.410;-1.966;2022-09-09T14:56:49;20.10;65.40
61591;DHT22;57639;52.410;-1.966;2022-09-09T14:59:57;20.10;65.30
61591;DHT22;57639;52.410;-1.966;2022-09-09T15:03:07;20.20;65.50
61591;DHT22;57639;52.410;-1.966;2022-09-09T15:06:16;20.10;65.40
61591;DHT22;57639;52.410;-1.966;2022-09-09T15:09:25;20.10;65.30
61591;DHT22;57639;52.410;-1.966;2022-09-09T15:12:32;20.20;65.20
61591;DHT22;57639;52.410;-1.966;2022-09-09T15:15:40;20.20;65.20
61591;DHT22;57639;52.410;-1.966;2022-09-09T15:18:54;20.20;65.10
61591;DHT22;57639;52.410;-1.966;2022-09-09T15:22:03;20.20;65.10
61591;DHT22;57639;52.410;-1.966;2022-09-09T15:25:11;20.20;65.00
61591;DHT22;57639;52.410;-1.966;2022-09-09T15:28:19;20.20;65.00
61591;DHT22;57639;52.410;-1.966;2022-09-09T15:31:29;20.20;65.00
61591;DHT22;57639;52.410;-1.966;2022-09-09T15:34:39;20.20;65.00
61591;DHT22;57639;52.410;-1.966;2022-09-09T15:37:47;20.10;64.90
61591;DHT22;57639;52.410;-1.966;2022-09-09T15:40:54;20.10;65.00
61591;DHT22;57639;52.410;-1.966;2022-09-09T15:44:02;20.10;65.00
61591;DHT22;57639;52.410;-1.966;2022-09-09T15:47:10;20.10;65.00
61591;DHT22;57639;52.410;-1.966;2022-09-09T15:50:22;20.10;65.00
61591;DHT22;57639;52.410;-1.966;2022-09-09T15:53:27;20.10;65.00
61591;DHT22;57639;52.410;-1.966;2022-09-09T15:56:36;20.10;65.00
61591;DHT22;57639;52.410;-1.966;2022-09-09T15:59:44;20.10;65.00
61591;DHT22;57639;52.410;-1.966;2022-09-09T16:02:52;20.10;65.00
61591;DHT22;57639;52.410;-1.966;2022-09-09T16:06:03;20.10;64.90
61591;DHT22;57639;52.410;-1.966;2022-09-09T16:09:11;20.10;64.90
61591;DHT22;57639;52.410;-1.966;2022-09-09T16:12:19;20.10;64.90
61591;DHT22;57639;52.410;-1.966;2022-09-09T16:15:24;20.10;64.90
61591;DHT22;57639;52.410;-1.966;2022-09-09T16:18:36;20.10;64.90
61591;DHT22;57639;52.410;-1.966;2022-09-09T16:21:48;20.10;64.90
61591;DHT22;57639;52.410;-1.966;2022-09-09T16:24:55;20.10;64.90
61591;DHT22;57639;52.410;-1.966;2022-09-09T16:28:02;20.10;64.90
61591;DHT22;57639;52.410;-1.966;2022-09-09T16:31:10;20.00;64.90
61591;DHT22;57639;52.410;-1.966;2022-09-09T16:34:21;20.10;64.80
61591;DHT22;57639;52.410;-1.966;2022-09-09T16:37:34;20.00;64.80
61591;DHT22;57639;52.410;-1.966;2022-09-09T16:40:44;20.10;64.80
61591;DHT22;57639;52.410;-1.966;2022-09-09T16:43:54;20.10;64.80
61591;DHT22;57639;52.410;-1.966;2022-09-09T16:47:03;20.10;64.80
61591;DHT22;57639;52.410;-1.966;2022-09-09T16:50:12;20.10;64.70
61591;DHT22;57639;52.410;-1.966;2022-09-09T16:53:23;20.10;64.80
61591;DHT22;57639;52.410;-1.966;2022-09-09T16:56:34;20.10;64.70
61591;DHT22;57639;52.410;-1.966;2022-09-09T16:59:39;20.10;64.70
61591;DHT22;57639;52.410;-1.966;2022-09-09T17:02:47;20.10;64.70
61591;DHT22;57639;52.410;-1.966;2022-09-09T17:05:56;20.10;64.70
61591;DHT22;57639;52.410;-1.966;2022-09-09T17:09:10;20.10;64.70
61591;DHT22;57639;52.410;-1.966;2022-09-09T17:12:18;20.10;64.60
61591;DHT22;57639;52.410;-1.966;2022-09-09T17:15:26;20.10;64.60
61591;DHT22;57639;52.410;-1.966;2022-09-09T17:18:34;20.10;64.70
61591;DHT22;57639;52.410;-1.966;2022-09-09T17:21:42;20.10;64.70
61591;DHT22;57639;52.410;-1.966;2022-09-09T17:25:13;20.00;64.70
61591;DHT22;57639;52.410;-1.966;2022-09-09T17:28:21;20.10;64.70
61591;DHT22;57639;52.410;-1.966;2022-09-09T17:31:32;20.00;64.70
61591;DHT22;57639;52.410;-1.966;2022-09-09T17:34:40;20.00;64.70
61591;DHT22;57639;52.410;-1.966;2022-09-09T17:37:47;20.10;64.70
61591;DHT22;57639;52.410;-1.966;2022-09-09T17:41:04;20.00;64.70
61591;DHT22;57639;52.410;-1.966;2022-09-09T17:44:12;20.00;64.70
61591;DHT22;57639;52.410;-1.966;2022-09-09T17:47:20;20.00;64.70
61591;DHT22;57639;52.410;-1.966;2022-09-09T17:50:25;20.00;64.70
61591;DHT22;57639;52.410;-1.966;2022-09-09T17:53:36;20.00;64.70
61591;DHT22;57639;52.410;-1.966;2022-09-09T17:56:48;20.00;64.80
61591;DHT22;57639;52.410;-1.966;2022-09-09T17:59:54;20.00;64.80
61591;DHT22;57639;52.410;-1.966;2022-09-09T18:03:02;20.00;64.80
61591;DHT22;57639;52.410;-1.966;2022-09-09T18:06:13;19.90;64.80
61591;DHT22;57639;52.410;-1.966;2022-09-09T18:09:24;19.90;64.80
61591;DHT22;57639;52.410;-1.966;2022-09-09T18:12:35;19.90;64.90
61591;DHT22;57639;52.410;-1.966;2022-09-09T18:15:45;19.90;64.90
61591;DHT22;57639;52.410;-1.966;2022-09-09T18:18:54;19.90;64.90
61591;DHT22;57639;52.410;-1.966;2022-09-09T18:22:04;19.90;64.90
61591;DHT22;57639;52.410;-1.966;2022-09-09T18:25:11;19.90;64.90
61591;DHT22;57639;52.410;-1.966;2022-09-09T18:28:24;19.90;64.90
61591;DHT22;57639;52.410;-1.966;2022-09-09T18:31:29;19.90;64.90
61591;DHT22;57639;52.410;-1.966;2022-09-09T18:34:37;19.90;65.00
61591;DHT22;57639;52.410;-1.966;2022-09-09T18:37:46;19.90;65.00
61591;DHT22;57639;52.410;-1.966;2022-09-09T18:40:53;19.90;65.00
61591;DHT22;57639;52.410;-1.966;2022-09-09T18:44:07;19.80;65.10
61591;DHT22;57639;52.410;-1.966;2022-09-09T18:47:16;19.90;65.10
61591;DHT22;57639;52.410;-1.966;2022-09-09T18:50:27;19.80;65.10
61591;DHT22;57639;52.410;-1.966;2022-09-09T18:53:49;19.80;65.00
61591;DHT22;57639;52.410;-1.966;2022-09-09T18:57:00;19.80;65.10
61591;DHT22;57639;52.410;-1.966;2022-09-09T19:00:13;19.80;65.00
61591;DHT22;57639;52.410;-1.966;2022-09-09T19:03:20;19.80;65.00
61591;DHT22;57639;52.410;-1.966;2022-09-09T19:06:32;19.80;65.00
61591;DHT22;57639;52.410;-1.966;2022-09-09T19:09:44;19.80;65.00
61591;DHT22;57639;52.410;-1.966;2022-09-09T19:12:52;19.80;65.00
61591;DHT22;57639;52.410;-1.966;2022-09-09T19:16:07;19.80;65.00
61591;DHT22;57639;52.410;-1.966;2022-09-09T19:19:19;19.80;65.00
61591;DHT22;57639;52.410;-1.966;2022-09-09T19:22:25;19.80;65.00
61591;DHT22;57639;52.410;-1.966;2022-09-09T19:25:34;19.70;65.00
61591;DHT22;57639;52.410;-1.966;2022-09-09T19:28:43;19.80;65.00
61591;DHT22;57639;52.410;-1.966;2022-09-09T19:32:01;19.80;65.00
61591;DHT22;57639;52.410;-1.966;2022-09-09T19:35:29;19.70;65.10
61591;DHT22;57639;52.410;-1.966;2022-09-09T19:38:37;19.70;65.00
61591;DHT22;57639;52.410;-1.966;2022-09-09T19:41:45;19.70;65.00
61591;DHT22;57639;52.410;-1.966;2022-09-09T19:44:53;19.80;65.00
61591;DHT22;57639;52.410;-1.966;2022-09-09T19:48:08;19.80;65.00
61591;DHT22;57639;52.410;-1.966;2022-09-09T19:51:19;19.80;65.00
61591;DHT22;57639;52.410;-1.966;2022-09-09T19:54:27;19.70;64.90